createdAt,value
2018-11-10T00:00:17.983Z,10.80
2018-11-10T00:02:47.570Z,10.80
2018-11-10T00:05:16.635Z,10.80
2018-11-10T00:07:45.425Z,10.80
2018-11-10T00:10:13.936Z,10.80
2018-11-10T00:12:42.467Z,10.90
2018-11-10T00:15:13.296Z,10.80
2018-11-10T00:17:41.856Z,10.80
2018-11-10T00:20:10.866Z,10.80
2018-11-10T00:22:40.571Z,10.80
2018-11-10T00:25:11.014Z,10.80
2018-11-10T00:27:39.819Z,10.70
2018-11-10T00:30:10.543Z,10.60
2018-11-10T00:32:39.057Z,10.60
2018-11-10T00:35:07.938Z,10.60
2018-11-10T00:37:36.588Z,10.60
2018-11-10T00:40:06.141Z,10.50
2018-11-10T00:42:34.695Z,10.50
2018-11-10T00:45:03.387Z,10.40
2018-11-10T00:47:31.937Z,10.40
2018-11-10T00:50:00.482Z,10.40
2018-11-10T00:52:29.163Z,10.30
2018-11-10T00:54:57.683Z,10.30
2018-11-10T00:57:26.202Z,10.40
2018-11-10T00:59:54.708Z,10.40
2018-11-10T01:02:23.215Z,10.40
2018-11-10T01:04:51.839Z,10.40
2018-11-10T01:07:20.379Z,10.40
2018-11-10T01:09:48.966Z,10.30
2018-11-10T01:12:17.480Z,10.30
2018-11-10T01:14:46.003Z,10.30
2018-11-10T01:17:14.631Z,10.30
2018-11-10T01:19:43.343Z,10.30
2018-11-10T01:22:11.854Z,10.20
2018-11-10T01:24:40.319Z,10.10
2018-11-10T01:27:08.961Z,10.00
2018-11-10T01:29:37.421Z,10.10
2018-11-10T01:32:06.447Z,10.00
2018-11-10T01:34:34.964Z,10.00
2018-11-10T01:37:03.519Z,9.90
2018-11-10T01:39:32.001Z,9.90
2018-11-10T01:42:00.634Z,9.90
2018-11-10T01:44:29.248Z,9.90
2018-11-10T01:46:58.066Z,10.00
2018-11-10T01:49:26.542Z,10.00
2018-11-10T01:51:55.240Z,10.00
2018-11-10T01:54:23.703Z,10.00
2018-11-10T01:56:52.395Z,10.00
2018-11-10T01:59:20.878Z,10.00
2018-11-10T02:01:49.398Z,10.00
2018-11-10T02:04:17.894Z,10.00
2018-11-10T02:06:46.554Z,10.00
2018-11-10T02:09:15.130Z,10.00
2018-11-10T02:11:43.756Z,10.10
2018-11-10T02:14:12.294Z,10.20
2018-11-10T02:16:40.882Z,10.20
2018-11-10T02:19:09.430Z,10.20
2018-11-10T02:21:38.048Z,10.20
2018-11-10T02:24:06.670Z,10.20
2018-11-10T02:26:35.147Z,10.30
2018-11-10T02:29:03.819Z,10.40
2018-11-10T02:31:32.318Z,10.40
2018-11-10T02:34:00.934Z,10.50
2018-11-10T02:36:29.516Z,10.50
2018-11-10T02:38:58.062Z,10.60
2018-11-10T02:41:26.598Z,10.60
2018-11-10T02:43:55.083Z,10.60
2018-11-10T02:46:23.603Z,10.70
2018-11-10T02:48:52.257Z,10.70
2018-11-10T02:51:20.859Z,10.70
2018-11-10T02:53:49.358Z,10.60
2018-11-10T02:56:18.052Z,10.60
2018-11-10T02:58:46.535Z,10.60
2018-11-10T03:01:15.103Z,10.90
2018-11-10T03:03:43.683Z,11.20
2018-11-10T03:06:12.488Z,11.50
2018-11-10T03:08:40.999Z,11.80
2018-11-10T03:11:09.466Z,12.20
2018-11-10T03:13:37.947Z,12.40
2018-11-10T03:16:06.608Z,12.50
2018-11-10T03:18:35.229Z,12.70
2018-11-10T03:21:03.691Z,12.70
2018-11-10T03:23:32.358Z,12.80
2018-11-10T03:26:00.849Z,12.90
2018-11-10T03:28:29.353Z,12.90
2018-11-10T03:30:57.945Z,12.90
2018-11-10T03:33:26.419Z,12.90
2018-11-10T03:35:54.871Z,12.90
2018-11-10T03:38:23.364Z,12.90
2018-11-10T03:40:51.869Z,13.00
2018-11-10T03:43:20.494Z,13.00
2018-11-10T03:45:48.975Z,13.10
2018-11-10T03:48:17.540Z,13.10
2018-11-10T03:50:45.986Z,13.20
2018-11-10T03:53:14.471Z,13.20
2018-11-10T03:55:42.961Z,13.10
2018-11-10T03:58:11.499Z,13.10
2018-11-10T04:00:40.184Z,13.10
2018-11-10T04:03:08.658Z,13.10
2018-11-10T04:05:37.261Z,13.10
2018-11-10T04:08:06.166Z,13.00
2018-11-10T04:10:34.699Z,13.00
2018-11-10T04:13:03.178Z,13.00
2018-11-10T04:15:31.695Z,13.00
2018-11-10T04:18:00.150Z,13.00
2018-11-10T04:20:28.739Z,13.00
2018-11-10T04:22:57.239Z,13.00
2018-11-10T04:25:25.687Z,13.10
2018-11-10T04:27:54.198Z,13.10
2018-11-10T04:30:22.683Z,13.20
2018-11-10T04:32:51.202Z,13.30
2018-11-10T04:35:19.662Z,13.30
2018-11-10T04:37:48.138Z,13.40
2018-11-10T04:40:16.601Z,13.40
2018-11-10T04:42:45.082Z,13.40
2018-11-10T04:45:13.570Z,13.40
2018-11-10T04:47:42.095Z,13.50
2018-11-10T04:50:11.822Z,13.50
2018-11-10T04:52:40.614Z,13.50
2018-11-10T04:55:10.559Z,13.50
2018-11-10T04:57:39.434Z,13.50
2018-11-10T05:00:10.435Z,13.50
2018-11-10T05:02:38.932Z,13.50
2018-11-10T05:05:07.875Z,13.50
2018-11-10T05:07:36.394Z,13.50
2018-11-10T05:10:05.702Z,13.40
2018-11-10T05:12:34.187Z,13.40
2018-11-10T05:15:02.673Z,13.40
2018-11-10T05:17:31.302Z,13.40
2018-11-10T05:19:59.773Z,13.40
2018-11-10T05:22:28.395Z,13.30
2018-11-10T05:24:56.859Z,13.30
2018-11-10T05:27:25.522Z,13.30
2018-11-10T05:29:54.006Z,13.30
2018-11-10T05:32:22.575Z,13.20
2018-11-10T05:34:51.042Z,13.20
2018-11-10T05:37:19.485Z,13.10
2018-11-10T05:39:48.042Z,13.10
2018-11-10T05:42:16.528Z,13.10
2018-11-10T05:44:44.982Z,13.10
2018-11-10T05:47:13.471Z,13.10
2018-11-10T05:49:41.951Z,13.00
2018-11-10T05:52:10.620Z,13.10
2018-11-10T05:54:39.383Z,13.10
2018-11-10T05:57:08.065Z,13.20
2018-11-10T05:59:36.654Z,13.30
2018-11-10T06:02:05.474Z,13.40
2018-11-10T06:04:34.104Z,13.40
2018-11-10T06:07:02.575Z,13.40
2018-11-10T06:09:31.283Z,13.50
2018-11-10T06:11:59.756Z,13.60
2018-11-10T06:14:28.248Z,13.70
2018-11-10T06:16:56.907Z,13.80
2018-11-10T06:19:25.388Z,13.90
2018-11-10T06:21:54.095Z,14.00
2018-11-10T06:24:22.558Z,14.00
2018-11-10T06:26:51.097Z,14.10
2018-11-10T06:29:19.635Z,14.20
2018-11-10T06:31:48.115Z,14.30
2018-11-10T06:34:16.782Z,14.30
2018-11-10T06:36:45.315Z,14.40
2018-11-10T06:39:13.924Z,14.30
2018-11-10T06:41:42.380Z,14.40
2018-11-10T06:44:10.874Z,14.40
2018-11-10T06:46:39.490Z,14.50
2018-11-10T06:49:08.511Z,14.40
2018-11-10T06:51:37.086Z,14.40
2018-11-10T06:54:05.747Z,14.40
2018-11-10T06:56:34.291Z,14.40
2018-11-10T06:59:02.926Z,14.30
2018-11-10T07:01:31.409Z,14.30
2018-11-10T07:03:59.865Z,14.30
2018-11-10T07:06:28.337Z,14.40
2018-11-10T07:08:56.839Z,14.40
2018-11-10T07:11:25.416Z,14.30
2018-11-10T07:13:53.899Z,14.30
2018-11-10T07:16:22.593Z,14.30
2018-11-10T07:18:51.030Z,14.20
2018-11-10T07:21:19.646Z,14.20
2018-11-10T07:23:48.127Z,14.20
2018-11-10T07:26:16.575Z,14.20
2018-11-10T07:28:45.122Z,14.20
2018-11-10T07:31:13.578Z,14.20
2018-11-10T07:33:42.090Z,14.20
2018-11-10T07:36:10.545Z,14.20
2018-11-10T07:38:39.036Z,14.20
2018-11-10T07:41:07.798Z,14.20
2018-11-10T07:43:36.280Z,14.20
2018-11-10T07:46:04.878Z,14.20
2018-11-10T07:48:33.668Z,14.20
2018-11-10T07:51:02.154Z,14.20
2018-11-10T07:53:30.631Z,14.20
2018-11-10T07:55:59.162Z,14.20
2018-11-10T07:58:27.527Z,14.10
2018-11-10T08:00:56.022Z,14.10
2018-11-10T08:03:24.740Z,14.10
2018-11-10T08:05:53.235Z,14.10
2018-11-10T08:08:21.903Z,14.10
2018-11-10T08:10:50.545Z,14.10
2018-11-10T08:13:18.992Z,14.00
2018-11-10T08:15:47.451Z,14.00
2018-11-10T08:18:15.981Z,14.00
2018-11-10T08:20:44.597Z,13.90
2018-11-10T08:23:13.177Z,13.90
2018-11-10T08:25:41.711Z,13.90
2018-11-10T08:28:10.287Z,13.80
2018-11-10T08:30:38.862Z,13.80
2018-11-10T08:33:07.390Z,13.70
2018-11-10T08:35:35.902Z,13.70
2018-11-10T08:38:04.421Z,13.60
2018-11-10T08:40:32.963Z,13.60
2018-11-10T08:43:01.483Z,13.60
2018-11-10T08:45:29.988Z,13.50
2018-11-10T08:47:58.525Z,13.50
2018-11-10T08:50:26.981Z,13.50
2018-11-10T08:52:56.128Z,13.50
2018-11-10T08:55:24.590Z,13.40
2018-11-10T08:57:53.150Z,13.40
2018-11-10T09:00:21.882Z,13.40
2018-11-10T09:02:50.378Z,13.30
2018-11-10T09:05:18.954Z,13.30
2018-11-10T09:07:47.559Z,13.30
2018-11-10T09:10:16.027Z,13.20
2018-11-10T09:12:44.518Z,13.20
2018-11-10T09:15:15.391Z,13.20
2018-11-10T09:17:44.584Z,13.20
2018-11-10T09:20:14.534Z,13.20
2018-11-10T09:22:43.743Z,13.20
2018-11-10T09:25:14.541Z,13.10
2018-11-10T09:27:43.175Z,13.10
2018-11-10T09:30:13.250Z,13.10
2018-11-10T09:32:41.975Z,13.10
2018-11-10T09:35:11.835Z,13.20
2018-11-10T09:37:40.336Z,13.20
2018-11-10T09:40:11.111Z,13.20
2018-11-10T09:42:39.910Z,13.20
2018-11-10T09:45:10.079Z,13.30
2018-11-10T09:47:38.838Z,13.30
2018-11-10T09:50:10.511Z,13.20
2018-11-10T09:52:39.252Z,13.20
2018-11-10T09:55:07.776Z,13.20
2018-11-10T09:57:36.855Z,13.20
2018-11-10T10:00:10.630Z,13.20
2018-11-10T10:02:39.410Z,13.20
2018-11-10T10:05:08.631Z,13.10
2018-11-10T10:07:37.304Z,13.10
2018-11-10T10:10:07.181Z,13.10
2018-11-10T10:12:35.618Z,13.10
2018-11-10T10:15:04.528Z,13.10
2018-11-10T10:17:33.177Z,13.00
2018-11-10T10:20:01.684Z,13.00
2018-11-10T10:22:30.128Z,13.00
2018-11-10T10:24:58.954Z,13.00
2018-11-10T10:27:27.455Z,13.00
2018-11-10T10:29:55.919Z,12.90
2018-11-10T10:32:24.345Z,12.90
2018-11-10T10:34:52.888Z,12.90
2018-11-10T10:37:21.281Z,12.90
2018-11-10T10:39:49.834Z,12.90
2018-11-10T10:42:18.295Z,13.00
2018-11-10T10:44:46.739Z,13.00
2018-11-10T10:47:15.258Z,13.00
2018-11-10T10:49:43.709Z,13.00
2018-11-10T10:52:12.336Z,13.00
2018-11-10T10:54:40.819Z,13.00
2018-11-10T10:57:09.549Z,13.00
2018-11-10T10:59:37.990Z,13.00
2018-11-10T11:02:11.771Z,13.00
2018-11-10T11:04:44.522Z,13.00
2018-11-10T11:07:13.055Z,13.00
2018-11-10T11:09:41.772Z,13.00
2018-11-10T11:12:10.202Z,13.00
2018-11-10T11:14:38.715Z,13.00
2018-11-10T11:17:07.207Z,13.00
2018-11-10T11:19:35.733Z,13.10
2018-11-10T11:22:04.426Z,13.00
2018-11-10T11:24:33.027Z,13.10
2018-11-10T11:27:01.518Z,13.10
2018-11-10T11:29:30.048Z,13.10
2018-11-10T11:31:58.617Z,13.10
2018-11-10T11:34:27.066Z,13.10
2018-11-10T11:36:55.510Z,13.10
2018-11-10T11:39:24.114Z,13.10
2018-11-10T11:41:52.687Z,13.10
2018-11-10T11:44:21.078Z,13.10
2018-11-10T11:46:49.585Z,13.20
2018-11-10T11:49:18.050Z,13.20
2018-11-10T11:51:46.555Z,13.20
2018-11-10T11:54:15.016Z,13.20
2018-11-10T11:56:43.551Z,13.20
2018-11-10T11:59:12.022Z,13.20
2018-11-10T12:01:40.527Z,13.30
2018-11-10T12:04:09.011Z,13.30
2018-11-10T12:06:37.571Z,13.30
2018-11-10T12:09:08.619Z,13.30
2018-11-10T12:11:37.315Z,13.40
2018-11-10T12:14:06.163Z,13.40
2018-11-10T12:16:34.707Z,13.40
2018-11-10T12:19:03.287Z,13.40
2018-11-10T12:21:31.809Z,13.40
2018-11-10T12:24:00.309Z,13.50
2018-11-10T12:26:28.942Z,13.50
2018-11-10T12:28:57.459Z,13.50
2018-11-10T12:31:25.996Z,13.60
2018-11-10T12:33:54.614Z,13.60
2018-11-10T12:36:23.159Z,13.40
2018-11-10T12:38:51.774Z,13.60
2018-11-10T12:41:20.360Z,13.60
2018-11-10T12:43:49.002Z,13.70
2018-11-10T12:46:17.749Z,13.70
2018-11-10T12:48:46.530Z,13.70
2018-11-10T12:51:15.305Z,13.70
2018-11-10T12:53:44.190Z,13.70
2018-11-10T12:56:12.991Z,13.70
2018-11-10T12:58:41.744Z,13.70
2018-11-10T13:01:10.363Z,13.80
2018-11-10T13:03:38.895Z,13.80
2018-11-10T13:06:07.479Z,13.80
2018-11-10T13:08:36.086Z,13.80
2018-11-10T13:11:04.838Z,13.80
2018-11-10T13:13:33.505Z,13.80
2018-11-10T13:16:02.231Z,13.80
2018-11-10T13:18:30.776Z,13.80
2018-11-10T13:20:59.264Z,13.80
2018-11-10T13:23:28.036Z,13.80
2018-11-10T13:25:56.619Z,13.80
2018-11-10T13:28:25.154Z,13.80
2018-11-10T13:30:53.905Z,13.80
2018-11-10T13:33:22.441Z,13.80
2018-11-10T13:35:50.934Z,13.80
2018-11-10T13:38:19.391Z,13.80
2018-11-10T13:40:48.039Z,13.80
2018-11-10T13:43:16.551Z,13.70
2018-11-10T13:45:45.056Z,13.70
2018-11-10T13:48:13.672Z,13.80
2018-11-10T13:50:42.326Z,13.80
2018-11-10T13:53:10.651Z,13.80
2018-11-10T13:55:39.195Z,13.80
2018-11-10T13:58:07.796Z,13.80
2018-11-10T14:00:36.364Z,13.80
2018-11-10T14:03:05.008Z,13.80
2018-11-10T14:05:33.467Z,13.80
2018-11-10T14:08:01.931Z,13.80
2018-11-10T14:10:30.598Z,13.90
2018-11-10T14:12:59.007Z,13.80
2018-11-10T14:15:27.662Z,13.90
2018-11-10T14:17:56.116Z,13.90
2018-11-10T14:20:24.708Z,13.80
2018-11-10T14:22:53.409Z,13.80
2018-11-10T14:25:22.011Z,13.80
2018-11-10T14:27:50.520Z,13.90
2018-11-10T14:30:18.967Z,13.90
2018-11-10T14:32:47.782Z,13.90
2018-11-10T14:35:16.321Z,13.90
2018-11-10T14:37:44.995Z,13.90
2018-11-10T14:40:15.051Z,13.90
2018-11-10T14:42:43.941Z,13.90
2018-11-10T14:45:13.747Z,14.00
2018-11-10T14:47:42.931Z,14.00
2018-11-10T14:50:12.341Z,14.00
2018-11-10T14:52:41.072Z,14.00
2018-11-10T14:55:10.323Z,14.00
2018-11-10T14:57:39.151Z,14.00
2018-11-10T15:00:10.730Z,14.00
2018-11-10T15:02:39.223Z,14.00
2018-11-10T15:05:08.743Z,14.00
2018-11-10T15:07:37.292Z,14.00
2018-11-10T15:10:07.699Z,14.00
2018-11-10T15:12:36.288Z,14.00
2018-11-10T15:15:05.966Z,14.00
2018-11-10T15:17:34.683Z,14.00
2018-11-10T15:20:03.476Z,14.00
2018-11-10T15:22:31.987Z,14.00
2018-11-10T15:25:00.557Z,14.00
2018-11-10T15:27:29.315Z,14.00
2018-11-10T15:29:57.755Z,14.10
2018-11-10T15:32:26.207Z,14.00
2018-11-10T15:34:54.710Z,14.00
2018-11-10T15:37:23.248Z,14.00
2018-11-10T15:39:51.698Z,14.00
2018-11-10T15:42:20.168Z,14.00
2018-11-10T15:44:48.816Z,14.00
2018-11-10T15:47:17.316Z,14.00
2018-11-10T15:49:45.785Z,14.00
2018-11-10T15:52:14.463Z,14.00
2018-11-10T15:54:43.060Z,14.00
2018-11-10T15:57:11.685Z,14.00
2018-11-10T15:59:40.098Z,13.90
2018-11-10T16:02:08.560Z,13.90
2018-11-10T16:04:37.034Z,13.90
2018-11-10T16:07:05.516Z,13.90
2018-11-10T16:09:34.071Z,13.90
2018-11-10T16:12:02.555Z,13.90
2018-11-10T16:14:31.002Z,13.90
2018-11-10T16:16:59.575Z,13.90
2018-11-10T16:19:28.093Z,13.90
2018-11-10T16:21:56.539Z,13.90
2018-11-10T16:24:25.190Z,13.90
2018-11-10T16:26:53.717Z,13.90
2018-11-10T16:29:22.162Z,13.80
2018-11-10T16:31:50.642Z,13.80
2018-11-10T16:34:19.147Z,13.80
2018-11-10T16:36:47.768Z,13.80
2018-11-10T16:39:16.239Z,13.80
2018-11-10T16:41:44.842Z,13.80
2018-11-10T16:44:13.271Z,13.80
2018-11-10T16:46:41.864Z,13.80
2018-11-10T16:49:10.301Z,13.90
2018-11-10T16:51:38.775Z,13.90
2018-11-10T16:54:07.383Z,13.80
2018-11-10T16:56:35.879Z,13.80
2018-11-10T16:59:05.057Z,13.80
2018-11-10T17:01:33.491Z,13.80
2018-11-10T17:04:01.991Z,13.80
2018-11-10T17:06:30.627Z,13.80
2018-11-10T17:08:59.454Z,13.80
2018-11-10T17:11:27.955Z,13.80
2018-11-10T17:13:56.451Z,13.80
2018-11-10T17:16:24.975Z,13.80
2018-11-10T17:18:53.527Z,13.80
2018-11-10T17:21:21.977Z,13.80
2018-11-10T17:23:50.474Z,13.70
2018-11-10T17:26:19.089Z,13.80
2018-11-10T17:28:47.735Z,13.80
2018-11-10T17:31:16.283Z,13.80
2018-11-10T17:33:44.786Z,13.80
2018-11-10T17:36:13.458Z,13.80
2018-11-10T17:38:41.952Z,13.80
2018-11-10T17:41:10.475Z,13.80
2018-11-10T17:43:39.066Z,13.80
2018-11-10T17:46:07.603Z,13.80
2018-11-10T17:48:36.358Z,13.80
2018-11-10T17:51:05.270Z,13.80
2018-11-10T17:53:33.803Z,13.80
2018-11-10T17:56:02.256Z,13.80
2018-11-10T17:58:30.764Z,13.80
2018-11-10T18:00:59.283Z,13.80
2018-11-10T18:03:27.755Z,13.80
2018-11-10T18:05:56.271Z,13.80
2018-11-10T18:08:24.783Z,13.80
2018-11-10T18:10:53.323Z,13.80
2018-11-10T18:13:21.954Z,13.80
2018-11-10T18:15:50.575Z,13.80
2018-11-10T18:18:19.090Z,13.80
2018-11-10T18:20:47.637Z,13.80
2018-11-10T18:23:16.115Z,13.80
2018-11-10T18:25:44.669Z,13.80
2018-11-10T18:28:13.147Z,13.80
2018-11-10T18:30:41.715Z,13.80
2018-11-10T18:33:10.161Z,13.80
2018-11-10T18:35:38.587Z,13.80
2018-11-10T18:38:07.104Z,13.70
2018-11-10T18:40:35.610Z,13.70
2018-11-10T18:43:04.045Z,13.70
2018-11-10T18:45:32.524Z,13.70
2018-11-10T18:48:01.091Z,13.70
2018-11-10T18:50:29.528Z,13.70
2018-11-10T18:52:58.075Z,13.60
2018-11-10T18:55:26.568Z,13.60
2018-11-10T18:57:55.127Z,13.60
2018-11-10T19:00:23.610Z,13.60
2018-11-10T19:02:52.028Z,13.60
2018-11-10T19:05:20.589Z,13.60
2018-11-10T19:07:49.014Z,13.60
2018-11-10T19:10:18.327Z,13.50
2018-11-10T19:12:46.839Z,13.50
2018-11-10T19:15:18.485Z,13.50
2018-11-10T19:17:47.123Z,13.50
2018-11-10T19:20:16.250Z,13.50
2018-11-10T19:22:44.922Z,13.50
2018-11-10T19:25:14.154Z,13.50
2018-11-10T19:27:42.731Z,13.50
2018-11-10T19:30:14.465Z,13.50
2018-11-10T19:32:43.489Z,13.50
2018-11-10T19:35:12.573Z,13.50
2018-11-10T19:37:41.063Z,13.50
2018-11-10T19:40:10.549Z,13.50
2018-11-10T19:42:39.451Z,13.50
2018-11-10T19:45:08.960Z,13.50
2018-11-10T19:47:37.855Z,13.50
2018-11-10T19:50:07.140Z,13.50
2018-11-10T19:52:35.712Z,13.50
2018-11-10T19:55:04.873Z,13.50
2018-11-10T19:57:33.333Z,13.50
2018-11-10T20:00:01.974Z,13.60
2018-11-10T20:02:30.510Z,13.60
2018-11-10T20:04:59.191Z,13.60
2018-11-10T20:07:27.647Z,13.60
2018-11-10T20:09:56.087Z,13.60
2018-11-10T20:12:24.575Z,13.60
2018-11-10T20:14:53.171Z,13.70
2018-11-10T20:17:21.692Z,13.70
2018-11-10T20:19:50.344Z,13.70
2018-11-10T20:22:18.820Z,13.70
2018-11-10T20:24:47.314Z,13.70
2018-11-10T20:27:16.046Z,13.80
2018-11-10T20:29:44.708Z,13.80
2018-11-10T20:32:13.385Z,13.80
2018-11-10T20:34:41.880Z,13.80
2018-11-10T20:37:10.562Z,13.90
2018-11-10T20:39:39.067Z,13.90
2018-11-10T20:42:07.691Z,13.90
2018-11-10T20:44:36.240Z,13.90
2018-11-10T20:47:04.844Z,13.90
2018-11-10T20:49:33.367Z,13.90
2018-11-10T20:52:01.921Z,13.90
2018-11-10T20:54:30.448Z,13.90
2018-11-10T20:56:59.052Z,13.90
2018-11-10T20:59:27.659Z,13.90
2018-11-10T21:01:56.174Z,13.90
2018-11-10T21:04:24.776Z,13.90
2018-11-10T21:06:53.272Z,13.90
2018-11-10T21:09:22.037Z,13.90
2018-11-10T21:11:50.561Z,13.90
2018-11-10T21:14:19.091Z,13.90
2018-11-10T21:16:47.715Z,13.80
2018-11-10T21:19:16.216Z,13.80
2018-11-10T21:21:44.751Z,13.80
2018-11-10T21:24:13.266Z,13.70
2018-11-10T21:26:41.886Z,13.70
2018-11-10T21:29:10.520Z,13.60
2018-11-10T21:31:39.045Z,13.60
2018-11-10T21:34:07.667Z,13.50
2018-11-10T21:36:36.274Z,13.50
2018-11-10T21:39:07.585Z,13.40
2018-11-10T21:41:36.324Z,13.40
2018-11-10T21:44:04.948Z,13.40
2018-11-10T21:46:33.554Z,13.40
2018-11-10T21:49:02.138Z,13.30
2018-11-10T21:51:30.769Z,13.40
2018-11-10T21:53:59.574Z,13.30
2018-11-10T21:56:28.043Z,13.30
2018-11-10T21:58:56.555Z,13.30
2018-11-10T22:01:25.040Z,13.30
2018-11-10T22:03:53.639Z,13.20
2018-11-10T22:06:22.162Z,13.20
2018-11-10T22:08:50.718Z,13.20
2018-11-10T22:11:19.255Z,13.20
2018-11-10T22:13:47.804Z,13.20
2018-11-10T22:16:16.320Z,13.20
2018-11-10T22:18:45.128Z,13.20
2018-11-10T22:21:13.662Z,13.20
2018-11-10T22:23:42.211Z,13.20
2018-11-10T22:26:10.715Z,13.20
2018-11-10T22:28:39.299Z,13.20
2018-11-10T22:31:08.117Z,13.20
2018-11-10T22:33:36.585Z,13.20
2018-11-10T22:36:05.252Z,13.10
2018-11-10T22:38:34.062Z,13.10
2018-11-10T22:41:02.810Z,13.10
2018-11-10T22:43:31.299Z,13.10
2018-11-10T22:46:00.147Z,13.10
2018-11-10T22:48:28.798Z,13.10
2018-11-10T22:50:57.331Z,13.10
2018-11-10T22:53:25.854Z,13.10
2018-11-10T22:55:54.395Z,13.10
2018-11-10T22:58:22.881Z,13.10
2018-11-10T23:00:56.714Z,13.10
2018-11-10T23:03:25.219Z,13.10
2018-11-10T23:05:53.649Z,13.10
2018-11-10T23:08:22.246Z,13.10
2018-11-10T23:10:50.726Z,13.10
2018-11-10T23:13:19.327Z,13.10
2018-11-10T23:15:47.794Z,13.10
2018-11-10T23:18:16.568Z,13.10
2018-11-10T23:20:45.044Z,13.10
2018-11-10T23:23:13.627Z,13.20
2018-11-10T23:25:42.171Z,13.10
2018-11-10T23:28:10.820Z,13.20
2018-11-10T23:30:39.339Z,13.20
2018-11-10T23:33:07.860Z,13.20
2018-11-10T23:35:36.527Z,13.20
2018-11-10T23:38:05.140Z,13.10
2018-11-10T23:40:33.606Z,13.20
2018-11-10T23:43:02.099Z,13.20
2018-11-10T23:45:30.651Z,13.20
2018-11-10T23:47:59.146Z,13.20
2018-11-10T23:50:27.786Z,13.10
2018-11-10T23:52:56.340Z,13.20
2018-11-10T23:55:24.810Z,13.20
2018-11-10T23:57:53.284Z,13.10
